createdAt,value
2022-11-18T00:01:50.106Z,70.70
2022-11-18T00:04:24.107Z,70.00
2022-11-18T00:06:54.271Z,69.20
2022-11-18T00:09:21.599Z,69.00
2022-11-18T00:12:10.375Z,68.40
2022-11-18T00:14:37.747Z,67.90
2022-11-18T00:17:07.428Z,68.20
2022-11-18T00:19:37.467Z,67.40
2022-11-18T00:22:08.756Z,67.20
2022-11-18T00:24:36.438Z,67.80
2022-11-18T00:27:07.074Z,66.80
2022-11-18T00:29:34.423Z,67.00
2022-11-18T00:32:02.519Z,66.80
2022-11-18T00:34:33.033Z,67.00
2022-11-18T00:37:05.043Z,66.50
2022-11-18T00:39:35.103Z,66.50
2022-11-18T00:42:21.916Z,67.10
2022-11-18T00:44:49.371Z,67.60
2022-11-18T00:47:18.801Z,67.60
2022-11-18T00:49:49.669Z,67.30
2022-11-18T00:52:16.894Z,66.90
2022-11-18T00:54:44.285Z,66.70
2022-11-18T00:57:21.111Z,66.30
2022-11-18T00:59:48.817Z,65.80
2022-11-18T01:02:32.084Z,64.60
2022-11-18T01:05:00.161Z,64.30
2022-11-18T01:07:27.672Z,64.20
2022-11-18T01:09:58.246Z,64.30
2022-11-18T01:12:54.413Z,64.60
2022-11-18T01:15:23.370Z,64.80
2022-11-18T01:17:52.785Z,65.30
2022-11-18T01:20:20.836Z,66.00
2022-11-18T01:22:48.295Z,66.60
2022-11-18T01:25:16.280Z,67.20
2022-11-18T01:27:46.557Z,67.80
2022-11-18T01:30:14.285Z,68.50
2022-11-18T01:32:44.388Z,68.90
2022-11-18T01:35:12.385Z,69.70
2022-11-18T01:37:40.153Z,70.00
2022-11-18T01:40:10.144Z,70.40
2022-11-18T01:42:38.283Z,70.90
2022-11-18T01:45:33.116Z,71.30
2022-11-18T01:48:17.138Z,71.60
2022-11-18T01:51:09.003Z,71.70
2022-11-18T01:53:43.397Z,71.90
2022-11-18T01:56:39.194Z,72.50
2022-11-18T01:59:11.214Z,72.90
2022-11-18T02:01:39.175Z,71.60
2022-11-18T02:04:09.240Z,71.10
2022-11-18T02:06:38.367Z,70.50
2022-11-18T02:09:06.746Z,70.30
2022-11-18T02:11:54.507Z,70.50
2022-11-18T02:14:36.374Z,70.60
2022-11-18T02:17:33.860Z,71.00
2022-11-18T02:20:10.684Z,71.30
2022-11-18T02:23:42.775Z,71.50
2022-11-18T02:26:44.854Z,71.80
2022-11-18T02:29:25.299Z,72.00
2022-11-18T02:32:10.520Z,72.30
2022-11-18T02:35:03.107Z,72.40
2022-11-18T02:37:47.272Z,72.50
2022-11-18T02:40:20.540Z,72.30
2022-11-18T02:43:04.598Z,72.30
2022-11-18T02:45:33.621Z,71.90
2022-11-18T02:48:06.631Z,71.70
2022-11-18T02:50:35.697Z,72.00
2022-11-18T02:53:07.095Z,71.40
2022-11-18T02:55:36.537Z,71.10
2022-11-18T02:58:06.410Z,71.20
2022-11-18T03:00:34.152Z,71.10
2022-11-18T03:03:23.733Z,71.00
2022-11-18T03:06:26.892Z,70.90
2022-11-18T03:09:18.328Z,71.00
2022-11-18T03:12:14.667Z,71.40
2022-11-18T03:14:57.861Z,71.20
2022-11-18T03:17:33.308Z,71.10
2022-11-18T03:20:14.622Z,71.10
2022-11-18T03:22:58.817Z,70.80
2022-11-18T03:25:41.739Z,71.20
2022-11-18T03:28:24.356Z,71.30
2022-11-18T03:31:04.760Z,71.50
2022-11-18T03:33:41.180Z,71.20
2022-11-18T03:36:15.029Z,71.40
2022-11-18T03:38:50.421Z,71.60
2022-11-18T03:41:23.107Z,71.60
2022-11-18T03:44:16.319Z,71.60
2022-11-18T03:46:50.548Z,71.50
2022-11-18T03:49:30.881Z,70.40
2022-11-18T03:52:09.780Z,70.00
2022-11-18T03:54:41.076Z,70.30
2022-11-18T03:57:39.623Z,70.40
2022-11-18T04:00:14.911Z,70.70
2022-11-18T04:02:43.088Z,70.70
2022-11-18T04:05:13.690Z,70.40
2022-11-18T04:07:50.329Z,70.70
2022-11-18T04:10:49.618Z,70.70
2022-11-18T04:13:30.548Z,70.80
2022-11-18T04:16:01.160Z,70.20
2022-11-18T04:18:29.105Z,70.60
2022-11-18T04:21:07.640Z,70.30
2022-11-18T04:23:34.899Z,70.40
2022-11-18T04:26:02.631Z,70.60
2022-11-18T04:28:32.778Z,70.50
2022-11-18T04:31:01.320Z,70.30
2022-11-18T04:33:30.731Z,70.50
2022-11-18T04:35:59.843Z,70.20
2022-11-18T04:38:27.075Z,69.90
2022-11-18T04:40:54.946Z,69.80
2022-11-18T04:43:22.327Z,69.80
2022-11-18T04:45:49.612Z,69.60
2022-11-18T04:48:20.052Z,68.90
2022-11-18T04:50:47.477Z,68.60
2022-11-18T04:53:18.589Z,68.60
2022-11-18T04:55:56.881Z,68.60
2022-11-18T04:58:26.838Z,68.50
2022-11-18T05:00:57.648Z,68.70
2022-11-18T05:03:24.817Z,68.40
2022-11-18T05:05:52.392Z,68.60
2022-11-18T05:08:24.762Z,68.70
2022-11-18T05:11:13.886Z,69.00
2022-11-18T05:13:41.374Z,69.50
2022-11-18T05:16:08.568Z,69.80
2022-11-18T05:18:39.382Z,70.30
2022-11-18T05:21:10.829Z,70.70
2022-11-18T05:23:38.455Z,71.10
2022-11-18T05:26:12.865Z,71.30
2022-11-18T05:28:40.315Z,71.80
2022-11-18T05:31:16.249Z,72.00
2022-11-18T05:33:45.404Z,72.40
2022-11-18T05:36:21.233Z,72.80
2022-11-18T05:38:49.319Z,73.20
2022-11-18T05:41:36.921Z,73.60
2022-11-18T05:44:05.411Z,73.90
2022-11-18T05:46:37.379Z,74.20
2022-11-18T05:49:05.035Z,74.60
2022-11-18T05:51:34.909Z,74.90
2022-11-18T05:54:13.829Z,75.30
2022-11-18T05:56:46.869Z,75.40
2022-11-18T05:59:15.692Z,75.70
2022-11-18T06:01:54.181Z,76.00
2022-11-18T06:04:57.267Z,76.10
2022-11-18T06:07:41.066Z,76.30
2022-11-18T06:10:12.289Z,76.50
2022-11-18T06:12:44.740Z,76.70
2022-11-18T06:15:22.649Z,77.10
2022-11-18T06:17:53.523Z,77.20
2022-11-18T06:20:22.688Z,77.30
2022-11-18T06:22:54.918Z,77.50
2022-11-18T06:25:25.764Z,77.40
2022-11-18T06:27:59.035Z,77.30
2022-11-18T06:30:26.223Z,77.30
2022-11-18T06:32:59.853Z,77.30
2022-11-18T06:35:28.000Z,77.30
2022-11-18T06:37:55.459Z,77.00
2022-11-18T06:40:23.654Z,76.80
2022-11-18T06:43:14.613Z,76.80
2022-11-18T06:46:08.842Z,76.60
2022-11-18T06:48:37.596Z,76.40
2022-11-18T06:51:12.565Z,76.40
2022-11-18T06:53:40.602Z,76.10
2022-11-18T06:56:13.327Z,76.00
2022-11-18T06:58:41.762Z,76.00
2022-11-18T07:01:23.980Z,75.90
2022-11-18T07:03:52.382Z,75.70
2022-11-18T07:06:27.771Z,75.80
2022-11-18T07:09:05.880Z,75.40
2022-11-18T07:11:45.928Z,75.60
2022-11-18T07:14:14.292Z,75.60
2022-11-18T07:16:41.768Z,75.40
2022-11-18T07:19:16.998Z,75.40
2022-11-18T07:21:45.528Z,75.60
2022-11-18T07:24:19.279Z,75.20
2022-11-18T07:26:48.263Z,74.40
2022-11-18T07:29:17.381Z,74.30
2022-11-18T07:31:51.811Z,74.30
2022-11-18T07:34:20.119Z,74.70
2022-11-18T07:36:48.491Z,75.20
2022-11-18T07:39:17.227Z,75.60
2022-11-18T07:41:55.079Z,76.10
2022-11-18T07:44:35.842Z,76.30
2022-11-18T07:47:06.290Z,76.20
2022-11-18T07:49:33.685Z,76.20
2022-11-18T07:52:04.716Z,76.40
2022-11-18T07:54:38.171Z,76.50
2022-11-18T07:57:12.363Z,76.60
2022-11-18T07:59:47.259Z,76.70
2022-11-18T08:02:18.458Z,76.70
2022-11-18T08:04:49.450Z,76.80
2022-11-18T08:07:17.201Z,76.80
2022-11-18T08:09:48.176Z,76.70
2022-11-18T08:12:19.612Z,76.60
2022-11-18T08:14:53.679Z,76.50
2022-11-18T08:17:31.532Z,76.70
2022-11-18T08:19:59.087Z,76.80
2022-11-18T08:22:29.599Z,76.90
2022-11-18T08:24:57.410Z,76.90
2022-11-18T08:27:25.186Z,77.10
2022-11-18T08:29:52.937Z,77.10
2022-11-18T08:32:23.703Z,77.10
2022-11-18T08:34:52.200Z,77.10
2022-11-18T08:37:24.940Z,77.10
2022-11-18T08:40:00.103Z,76.90
2022-11-18T08:42:33.936Z,76.60
2022-11-18T08:45:09.716Z,75.80
2022-11-18T08:47:40.351Z,75.30
2022-11-18T08:50:10.179Z,75.10
2022-11-18T08:52:40.695Z,74.80
2022-11-18T08:55:15.447Z,74.50
2022-11-18T08:57:43.181Z,74.70
2022-11-18T09:00:17.777Z,75.00
2022-11-18T09:02:45.519Z,75.30
2022-11-18T09:05:15.668Z,75.80
2022-11-18T09:07:43.679Z,76.50
2022-11-18T09:10:11.287Z,77.20
2022-11-18T09:12:45.841Z,77.60
2022-11-18T09:15:17.195Z,78.00
2022-11-18T09:17:45.641Z,78.00
2022-11-18T09:20:13.121Z,77.50
2022-11-18T09:22:43.177Z,77.20
2022-11-18T09:25:10.860Z,77.80
2022-11-18T09:27:41.397Z,78.40
2022-11-18T09:30:15.202Z,78.40
2022-11-18T09:32:42.997Z,78.40
2022-11-18T09:35:11.211Z,78.50
2022-11-18T09:37:39.014Z,78.60
2022-11-18T09:40:20.137Z,78.70
2022-11-18T09:43:07.602Z,78.90
2022-11-18T09:45:55.163Z,78.90
2022-11-18T09:48:48.902Z,78.80
2022-11-18T09:51:16.576Z,78.30
2022-11-18T09:53:46.333Z,77.60
2022-11-18T09:56:21.012Z,77.00
2022-11-18T09:58:49.932Z,77.10
2022-11-18T10:01:27.804Z,76.70
2022-11-18T10:03:55.261Z,76.40
2022-11-18T10:06:43.584Z,75.90
2022-11-18T10:09:35.918Z,75.00
2022-11-18T10:12:36.781Z,74.10
2022-11-18T10:15:22.338Z,73.70
2022-11-18T10:18:18.790Z,72.70
2022-11-18T10:21:34.803Z,71.60
2022-11-18T10:24:17.178Z,71.10
2022-11-18T10:26:46.669Z,70.60
2022-11-18T10:29:20.833Z,69.90
2022-11-18T10:32:31.820Z,69.00
2022-11-18T10:40:40.691Z,64.70
2022-11-18T10:46:32.402Z,62.40
2022-11-18T10:49:09.591Z,61.90
2022-11-18T10:52:14.972Z,62.00
2022-11-18T10:55:08.913Z,61.50
2022-11-18T10:57:48.562Z,61.40
2022-11-18T11:00:37.975Z,61.90
2022-11-18T11:03:27.149Z,66.00
2022-11-18T11:06:35.147Z,67.00
2022-11-18T11:09:08.621Z,67.20
2022-11-18T11:11:57.585Z,67.20
2022-11-18T11:14:42.998Z,66.90
2022-11-18T11:17:29.503Z,67.10
2022-11-18T11:20:21.909Z,65.20
2022-11-18T11:23:03.277Z,64.80
2022-11-18T11:29:00.991Z,61.90
2022-11-18T11:31:57.551Z,61.50
2022-11-18T11:34:33.413Z,62.10
2022-11-18T11:37:37.770Z,62.40
2022-11-18T11:40:40.289Z,61.90
2022-11-18T11:43:44.825Z,62.10
2022-11-18T11:46:46.016Z,62.00
2022-11-18T11:49:22.633Z,61.40
2022-11-18T11:52:13.204Z,61.40
2022-11-18T11:54:58.868Z,61.20
2022-11-18T11:58:11.847Z,60.90
2022-11-18T12:00:54.058Z,61.90
2022-11-18T12:03:51.933Z,62.40
2022-11-18T12:06:28.025Z,62.80
2022-11-18T12:09:13.931Z,63.50
2022-11-18T12:11:52.067Z,64.20
2022-11-18T12:14:53.433Z,64.80
2022-11-18T12:17:35.636Z,65.60
2022-11-18T12:20:52.767Z,66.80
2022-11-18T12:23:22.222Z,67.60
2022-11-18T12:26:12.022Z,68.20
2022-11-18T12:28:58.767Z,68.20
2022-11-18T12:31:33.954Z,68.80
2022-11-18T12:34:07.707Z,69.00
2022-11-18T12:36:42.912Z,69.60
2022-11-18T12:39:29.002Z,70.10
2022-11-18T12:42:29.630Z,70.20
2022-11-18T12:46:04.883Z,69.70
2022-11-18T12:48:37.052Z,69.70
2022-11-18T12:51:18.864Z,70.30
2022-11-18T12:53:53.940Z,70.30
2022-11-18T12:56:35.512Z,70.60
2022-11-18T12:59:17.713Z,71.20
2022-11-18T13:01:47.985Z,71.20
2022-11-18T13:04:42.889Z,71.50
2022-11-18T13:07:36.886Z,72.20
2022-11-18T13:10:28.223Z,72.90
2022-11-18T13:12:58.461Z,73.50
2022-11-18T13:15:53.538Z,74.10
2022-11-18T13:18:25.175Z,74.50
2022-11-18T13:21:28.751Z,75.00
2022-11-18T13:24:01.383Z,75.20
2022-11-18T13:26:51.451Z,75.50
2022-11-18T13:29:51.167Z,75.60
2022-11-18T13:32:25.343Z,76.30
2022-11-18T13:34:59.869Z,77.10
2022-11-18T13:37:37.791Z,77.40
2022-11-18T13:40:19.363Z,77.90
2022-11-18T13:42:48.622Z,78.40
2022-11-18T13:45:27.988Z,77.90
2022-11-18T13:48:12.972Z,78.40
2022-11-18T13:50:51.425Z,77.50
2022-11-18T13:53:44.786Z,77.00
2022-11-18T13:56:43.340Z,75.80
2022-11-18T13:59:25.551Z,75.60
2022-11-18T14:02:03.745Z,75.80
2022-11-18T14:04:54.932Z,76.20
2022-11-18T14:07:32.126Z,76.90
2022-11-18T14:10:01.442Z,77.70
2022-11-18T14:12:35.611Z,77.90
2022-11-18T14:15:34.649Z,77.90
2022-11-18T14:18:09.306Z,77.80
2022-11-18T14:20:40.823Z,77.50
2022-11-18T14:23:22.446Z,77.00
2022-11-18T14:25:50.003Z,76.90
2022-11-18T14:28:17.472Z,76.80
2022-11-18T14:31:04.584Z,76.90
2022-11-18T14:33:35.064Z,77.20
2022-11-18T14:36:25.831Z,76.80
2022-11-18T14:41:47.439Z,76.70
2022-11-18T14:44:23.820Z,76.40
2022-11-18T14:47:03.975Z,76.40
2022-11-18T14:49:33.064Z,76.60
2022-11-18T14:52:04.782Z,76.70
2022-11-18T14:54:33.152Z,76.90
2022-11-18T14:57:17.051Z,77.00
2022-11-18T15:02:38.093Z,77.20
2022-11-18T15:05:10.026Z,77.40
2022-11-18T15:07:40.580Z,77.70
2022-11-18T15:10:17.661Z,77.80
2022-11-18T15:12:49.563Z,77.90
2022-11-18T15:15:27.042Z,78.10
2022-11-18T15:17:58.444Z,78.20
2022-11-18T15:20:30.168Z,78.40
2022-11-18T15:23:04.479Z,78.20
2022-11-18T15:25:37.405Z,78.30
2022-11-18T15:28:07.385Z,78.20
2022-11-18T15:30:37.505Z,78.30
2022-11-18T15:33:08.880Z,78.10
2022-11-18T15:35:39.697Z,77.90
2022-11-18T15:38:11.221Z,78.00
2022-11-18T15:40:50.043Z,77.90
2022-11-18T15:43:22.990Z,77.70
2022-11-18T15:46:02.644Z,77.70
2022-11-18T15:48:32.861Z,77.50
2022-11-18T15:51:01.411Z,77.50
2022-11-18T15:53:29.748Z,77.30
2022-11-18T15:56:30.997Z,77.30
2022-11-18T15:59:12.097Z,77.50
2022-11-18T16:01:42.759Z,77.50
2022-11-18T16:04:14.863Z,77.50
2022-11-18T16:06:47.935Z,77.30
2022-11-18T16:09:50.504Z,77.30
2022-11-18T16:12:42.898Z,77.30
2022-11-18T16:15:44.485Z,77.30
2022-11-18T16:18:16.765Z,77.30
2022-11-18T16:20:59.265Z,77.00
2022-11-18T16:23:33.352Z,76.80
2022-11-18T16:26:01.405Z,76.80
2022-11-18T16:28:37.084Z,76.80
2022-11-18T16:31:23.899Z,76.30
2022-11-18T16:33:51.721Z,76.40
2022-11-18T16:36:26.646Z,76.50
2022-11-18T16:38:54.570Z,76.30
2022-11-18T16:41:32.675Z,76.30
2022-11-18T16:44:04.289Z,76.40
2022-11-18T16:49:22.368Z,76.00
2022-11-18T16:51:52.550Z,76.10
2022-11-18T16:54:31.763Z,76.10
2022-11-18T16:56:59.993Z,76.10
2022-11-18T16:59:34.733Z,76.00
2022-11-18T17:02:03.240Z,75.80
2022-11-18T17:04:31.556Z,75.70
2022-11-18T17:07:02.276Z,75.80
2022-11-18T17:09:35.349Z,76.20
2022-11-18T17:12:07.413Z,76.50
2022-11-18T17:14:42.093Z,77.00
2022-11-18T17:17:15.005Z,77.60
2022-11-18T17:19:44.600Z,78.20
2022-11-18T17:22:15.008Z,78.90
2022-11-18T17:24:46.355Z,79.30
2022-11-18T17:27:14.304Z,79.70
2022-11-18T17:29:45.245Z,79.90
2022-11-18T17:32:16.787Z,80.40
2022-11-18T17:34:47.104Z,81.10
2022-11-18T17:37:20.716Z,81.50
2022-11-18T17:39:47.974Z,82.00
2022-11-18T17:42:17.692Z,82.50
2022-11-18T17:44:48.228Z,82.80
2022-11-18T17:47:15.860Z,82.70
2022-11-18T17:49:44.182Z,82.80
2022-11-18T17:52:17.340Z,83.10
2022-11-18T17:54:44.831Z,84.30
2022-11-18T17:57:12.416Z,83.80
2022-11-18T17:59:40.056Z,83.90
2022-11-18T18:02:16.585Z,83.80
2022-11-18T18:04:45.181Z,83.60
2022-11-18T18:07:15.955Z,83.80
2022-11-18T18:09:45.970Z,83.40
2022-11-18T18:12:36.728Z,82.80
2022-11-18T18:15:07.872Z,83.30
2022-11-18T18:17:35.516Z,83.30
2022-11-18T18:20:06.681Z,83.10
2022-11-18T18:22:34.648Z,83.10
2022-11-18T18:25:05.309Z,82.80
2022-11-18T18:27:33.157Z,83.00
2022-11-18T18:30:04.021Z,82.90
2022-11-18T18:32:31.564Z,82.50
2022-11-18T18:35:03.338Z,81.60
2022-11-18T18:37:30.678Z,81.40
2022-11-18T18:39:58.443Z,81.40
2022-11-18T18:42:26.624Z,81.40
2022-11-18T18:45:12.931Z,81.30
2022-11-18T18:47:45.151Z,81.60
2022-11-18T18:50:12.356Z,81.80
2022-11-18T18:52:40.201Z,82.10
2022-11-18T18:55:07.812Z,82.00
2022-11-18T18:57:43.488Z,81.90
2022-11-18T19:00:13.737Z,81.80
2022-11-18T19:02:41.707Z,82.20
2022-11-18T19:05:09.916Z,81.90
2022-11-18T19:07:37.973Z,81.70
2022-11-18T19:10:09.245Z,81.70
2022-11-18T19:12:47.013Z,82.30
2022-11-18T19:15:16.583Z,82.70
2022-11-18T19:17:46.434Z,82.90
2022-11-18T19:20:37.096Z,83.00
2022-11-18T19:23:10.392Z,83.20
2022-11-18T19:25:41.296Z,83.10
2022-11-18T19:28:19.919Z,82.90
2022-11-18T19:30:50.794Z,83.00
2022-11-18T19:33:18.875Z,83.30
2022-11-18T19:35:46.224Z,83.30
2022-11-18T19:38:17.029Z,83.70
2022-11-18T19:40:47.278Z,83.90
2022-11-18T19:43:17.226Z,84.50
2022-11-18T19:45:52.506Z,84.70
2022-11-18T19:48:20.594Z,85.00
2022-11-18T19:50:47.948Z,85.30
2022-11-18T19:53:37.179Z,85.50
2022-11-18T19:56:13.297Z,85.40
2022-11-18T19:58:45.290Z,86.00
2022-11-18T20:01:18.384Z,86.30
2022-11-18T20:03:47.907Z,86.60
2022-11-18T20:06:17.078Z,87.00
2022-11-18T20:08:46.540Z,86.90
2022-11-18T20:11:16.474Z,86.90
2022-11-18T20:13:46.175Z,87.00
2022-11-18T20:16:25.133Z,87.10
2022-11-18T20:18:54.720Z,87.10
2022-11-18T20:21:23.660Z,87.00
2022-11-18T20:24:02.376Z,86.90
2022-11-18T20:26:32.226Z,86.40
2022-11-18T20:28:59.876Z,86.30
2022-11-18T20:31:30.299Z,86.40
2022-11-18T20:33:58.664Z,86.50
2022-11-18T20:36:37.259Z,86.70
2022-11-18T20:39:13.754Z,86.70
2022-11-18T20:41:43.973Z,86.30
2022-11-18T20:44:12.838Z,86.10
2022-11-18T20:46:42.957Z,85.80
2022-11-18T20:49:11.110Z,85.80
2022-11-18T20:51:39.312Z,86.30
2022-11-18T20:54:09.311Z,86.20
2022-11-18T20:56:37.471Z,86.40
2022-11-18T20:59:09.919Z,86.60
2022-11-18T21:01:37.792Z,86.60
2022-11-18T21:04:11.030Z,86.60
2022-11-18T21:06:38.682Z,86.70
2022-11-18T21:09:10.809Z,86.80
2022-11-18T21:11:39.193Z,87.20
2022-11-18T21:14:26.745Z,87.00
2022-11-18T21:16:57.966Z,87.00
2022-11-18T21:19:26.764Z,86.20
2022-11-18T21:21:55.412Z,86.60
2022-11-18T21:24:34.257Z,87.00
2022-11-18T21:27:04.043Z,86.70
2022-11-18T21:29:32.458Z,86.50
2022-11-18T21:32:01.696Z,86.50
2022-11-18T21:34:32.391Z,86.50
2022-11-18T21:37:02.903Z,86.30
2022-11-18T21:39:30.151Z,86.50
2022-11-18T21:42:02.699Z,86.80
2022-11-18T21:44:33.020Z,86.90
2022-11-18T21:47:00.431Z,86.70
2022-11-18T21:49:28.260Z,86.30
2022-11-18T21:51:56.153Z,86.20
2022-11-18T21:54:24.254Z,86.50
2022-11-18T21:56:55.586Z,86.40
2022-11-18T21:59:23.805Z,86.50
2022-11-18T22:01:50.995Z,86.50
2022-11-18T22:04:40.347Z,86.50
2022-11-18T22:07:09.216Z,86.40
2022-11-18T22:09:37.409Z,86.30
2022-11-18T22:12:07.796Z,86.60
2022-11-18T22:14:36.045Z,86.30
2022-11-18T22:17:08.450Z,86.40
2022-11-18T22:19:36.760Z,86.20
2022-11-18T22:22:04.480Z,86.30
2022-11-18T22:24:31.749Z,86.30
2022-11-18T22:26:59.304Z,86.40
2022-11-18T22:29:29.582Z,86.40
2022-11-18T22:32:00.702Z,86.40
2022-11-18T22:34:29.772Z,86.50
2022-11-18T22:37:02.246Z,86.40
2022-11-18T22:39:29.742Z,86.40
2022-11-18T22:42:16.268Z,86.50
2022-11-18T22:44:52.128Z,86.40
2022-11-18T22:47:21.640Z,86.10
2022-11-18T22:49:53.531Z,86.90
2022-11-18T22:52:24.372Z,87.30
2022-11-18T22:54:51.858Z,87.00
2022-11-18T22:57:19.206Z,87.00
2022-11-18T22:59:49.632Z,86.80
2022-11-18T23:02:17.945Z,87.10
2022-11-18T23:04:47.921Z,87.30
2022-11-18T23:07:16.941Z,87.50
2022-11-18T23:09:44.505Z,87.60
2022-11-18T23:12:30.962Z,87.20
2022-11-18T23:14:58.632Z,87.50
2022-11-18T23:17:26.419Z,87.70
2022-11-18T23:19:53.947Z,88.10
2022-11-18T23:22:22.072Z,88.20
2022-11-18T23:24:51.049Z,88.20
2022-11-18T23:27:19.711Z,88.20
2022-11-18T23:29:47.215Z,88.00
2022-11-18T23:32:14.451Z,87.40
2022-11-18T23:34:42.670Z,87.40
2022-11-18T23:37:10.007Z,87.60
2022-11-18T23:39:38.035Z,87.70
2022-11-18T23:42:11.915Z,87.60
2022-11-18T23:44:50.907Z,87.70
2022-11-18T23:47:21.452Z,87.90
2022-11-18T23:49:49.380Z,87.50
2022-11-18T23:52:17.470Z,87.30
2022-11-18T23:54:45.728Z,87.10
2022-11-18T23:57:19.239Z,87.10
2022-11-18T23:59:47.346Z,87.20
